createdAt,value
2018-02-24T00:00:53.515Z,0
2018-02-24T00:01:53.554Z,0
2018-02-24T00:02:53.499Z,0
2018-02-24T00:03:53.493Z,0
2018-02-24T00:04:53.548Z,0
2018-02-24T00:05:53.486Z,0
2018-02-24T00:06:53.484Z,0
2018-02-24T00:07:53.479Z,0
2018-02-24T00:08:53.488Z,0
2018-02-24T00:09:53.456Z,0
2018-02-24T00:10:53.485Z,0
2018-02-24T00:11:53.493Z,0
2018-02-24T00:12:53.567Z,0
2018-02-24T00:13:53.525Z,0
2018-02-24T00:14:53.585Z,0
2018-02-24T00:15:53.551Z,0
2018-02-24T00:16:53.448Z,0
2018-02-24T00:17:53.583Z,0
2018-02-24T00:18:53.489Z,0
2018-02-24T00:19:53.509Z,0
2018-02-24T00:20:53.465Z,0
2018-02-24T00:21:53.559Z,0
2018-02-24T00:22:53.527Z,0
2018-02-24T00:23:53.561Z,0
2018-02-24T00:24:53.491Z,0
2018-02-24T00:25:53.451Z,0
2018-02-24T00:26:53.552Z,0
2018-02-24T00:27:53.475Z,0
2018-02-24T00:28:53.542Z,0
2018-02-24T00:29:53.568Z,0
2018-02-24T00:30:53.499Z,0
2018-02-24T00:31:53.533Z,0
2018-02-24T00:32:53.564Z,0
2018-02-24T00:33:53.570Z,0
2018-02-24T00:34:53.536Z,0
2018-02-24T00:35:53.474Z,0
2018-02-24T00:36:53.440Z,0
2018-02-24T00:37:53.507Z,0
2018-02-24T00:38:53.545Z,0
2018-02-24T00:39:53.547Z,0
2018-02-24T00:40:53.477Z,0
2018-02-24T00:41:53.549Z,0
2018-02-24T00:42:53.546Z,0
2018-02-24T00:43:53.476Z,0
2018-02-24T00:44:53.546Z,0
2018-02-24T00:45:53.544Z,0
2018-02-24T00:46:53.539Z,0
2018-02-24T00:47:53.435Z,0
2018-02-24T00:48:53.550Z,0
2018-02-24T00:49:53.489Z,0
2018-02-24T00:50:53.548Z,0
2018-02-24T00:51:53.482Z,0
2018-02-24T00:52:53.505Z,0
2018-02-24T00:53:53.478Z,0
2018-02-24T00:54:53.493Z,0
2018-02-24T00:55:53.482Z,0
2018-02-24T00:56:53.553Z,0
2018-02-24T00:57:53.484Z,0
2018-02-24T00:58:53.434Z,0
2018-02-24T00:59:53.471Z,0
2018-02-24T01:00:53.425Z,0
2018-02-24T01:01:53.494Z,0
2018-02-24T01:02:53.538Z,0
2018-02-24T01:03:53.491Z,0
2018-02-24T01:04:53.530Z,0
2018-02-24T01:05:53.543Z,0
2018-02-24T01:06:53.431Z,0
2018-02-24T01:07:53.490Z,0
2018-02-24T01:08:53.553Z,0
2018-02-24T01:09:53.521Z,0
2018-02-24T01:10:53.527Z,0
2018-02-24T01:11:53.557Z,0
2018-02-24T01:12:53.569Z,0
2018-02-24T01:13:53.582Z,0
2018-02-24T01:14:53.622Z,0
2018-02-24T01:15:53.525Z,0
2018-02-24T01:16:53.544Z,0
2018-02-24T01:17:53.484Z,0
2018-02-24T01:18:53.595Z,0
2018-02-24T01:19:53.604Z,0
2018-02-24T01:20:53.535Z,0
2018-02-24T01:21:53.526Z,0
2018-02-24T01:22:53.596Z,0
2018-02-24T01:23:53.487Z,0
2018-02-24T01:24:53.576Z,0
2018-02-24T01:25:53.538Z,0
2018-02-24T01:26:53.608Z,0
2018-02-24T01:27:53.627Z,0
2018-02-24T01:28:53.597Z,0
2018-02-24T01:29:53.590Z,0
2018-02-24T01:30:53.546Z,0
2018-02-24T01:31:53.545Z,0
2018-02-24T01:32:53.631Z,0
2018-02-24T01:33:53.494Z,0
2018-02-24T01:34:53.569Z,0
2018-02-24T01:35:53.553Z,0
2018-02-24T01:36:53.610Z,0
2018-02-24T01:37:53.606Z,0
2018-02-24T01:38:53.545Z,0
2018-02-24T01:39:53.575Z,0
2018-02-24T01:40:53.584Z,0
2018-02-24T01:41:53.606Z,0
2018-02-24T01:42:53.498Z,0
2018-02-24T01:43:53.557Z,0
2018-02-24T01:44:53.538Z,0
2018-02-24T01:45:53.511Z,0
2018-02-24T01:46:53.578Z,0
2018-02-24T01:47:53.612Z,0
2018-02-24T01:48:53.516Z,0
2018-02-24T01:49:53.581Z,0
2018-02-24T01:50:53.607Z,0
2018-02-24T01:51:53.581Z,0
2018-02-24T01:52:53.556Z,0
2018-02-24T01:53:53.611Z,0
2018-02-24T01:54:53.591Z,0
2018-02-24T01:55:53.644Z,0
2018-02-24T01:56:53.616Z,0
2018-02-24T01:57:53.645Z,0
2018-02-24T01:58:53.611Z,0
2018-02-24T01:59:53.496Z,0
2018-02-24T02:00:53.587Z,0
2018-02-24T02:01:53.589Z,0
2018-02-24T02:02:53.549Z,0
2018-02-24T02:03:53.518Z,0
2018-02-24T02:04:53.651Z,0
2018-02-24T02:05:53.591Z,0
2018-02-24T02:06:53.560Z,0
2018-02-24T02:07:53.510Z,0
2018-02-24T02:08:53.651Z,0
2018-02-24T02:09:53.619Z,0
2018-02-24T02:10:53.633Z,0
2018-02-24T02:11:53.517Z,0
2018-02-24T02:12:53.559Z,0
2018-02-24T02:13:53.602Z,0
2018-02-24T02:14:53.634Z,0
2018-02-24T02:15:53.600Z,0
2018-02-24T02:16:53.501Z,0
2018-02-24T02:17:53.626Z,0
2018-02-24T02:18:53.597Z,0
2018-02-24T02:19:53.517Z,0
2018-02-24T02:20:53.635Z,0
2018-02-24T02:21:53.565Z,0
2018-02-24T02:22:53.568Z,0
2018-02-24T02:23:53.598Z,0
2018-02-24T02:24:53.626Z,0
2018-02-24T02:25:53.636Z,0
2018-02-24T02:26:53.602Z,0
2018-02-24T02:27:53.601Z,0
2018-02-24T02:28:53.568Z,0
2018-02-24T02:29:53.605Z,0
2018-02-24T02:31:53.606Z,0
2018-02-24T02:32:53.546Z,0
2018-02-24T02:33:53.606Z,0
2018-02-24T02:34:53.615Z,0
2018-02-24T02:35:53.676Z,0
2018-02-24T02:36:53.675Z,0
2018-02-24T02:37:53.626Z,0
2018-02-24T02:38:53.574Z,0
2018-02-24T02:39:53.711Z,0
2018-02-24T02:40:53.545Z,0
2018-02-24T02:41:53.551Z,0
2018-02-24T02:42:53.620Z,0
2018-02-24T02:43:53.623Z,0
2018-02-24T02:44:53.548Z,0
2018-02-24T02:45:53.550Z,0
2018-02-24T02:46:53.549Z,0
2018-02-24T02:47:53.547Z,0
2018-02-24T02:48:53.628Z,0
2018-02-24T02:49:53.535Z,0
2018-02-24T02:50:53.558Z,0
2018-02-24T02:51:53.619Z,0
2018-02-24T02:52:53.537Z,0
2018-02-24T02:53:53.542Z,0
2018-02-24T02:54:53.629Z,0
2018-02-24T02:55:53.682Z,0
2018-02-24T02:56:53.627Z,0
2018-02-24T02:57:53.540Z,0
2018-02-24T02:58:53.609Z,0
2018-02-24T02:59:53.535Z,0
2018-02-24T03:00:53.651Z,0
2018-02-24T03:01:53.665Z,0
2018-02-24T03:02:53.660Z,0
2018-02-24T03:03:53.590Z,0
2018-02-24T03:04:53.530Z,0
2018-02-24T03:05:53.598Z,0
2018-02-24T03:06:53.596Z,0
2018-02-24T03:07:53.596Z,0
2018-02-24T03:08:53.593Z,0
2018-02-24T03:09:53.625Z,0
2018-02-24T03:10:53.546Z,0
2018-02-24T03:11:53.560Z,0
2018-02-24T03:12:53.626Z,0
2018-02-24T03:13:53.552Z,0
2018-02-24T03:14:53.626Z,0
2018-02-24T03:15:53.557Z,0
2018-02-24T03:16:53.628Z,0
2018-02-24T03:17:53.553Z,0
2018-02-24T03:18:53.634Z,0
2018-02-24T03:19:53.573Z,0
2018-02-24T03:20:53.574Z,0
2018-02-24T03:21:53.575Z,0
2018-02-24T03:22:53.597Z,0
2018-02-24T03:23:53.538Z,0
2018-02-24T03:24:53.618Z,0
2018-02-24T03:25:53.535Z,0
2018-02-24T03:26:53.546Z,0
2018-02-24T03:27:53.510Z,0
2018-02-24T03:28:53.511Z,0
2018-02-24T03:29:53.647Z,0
2018-02-24T03:30:53.652Z,0
2018-02-24T03:31:53.615Z,0
2018-02-24T03:32:53.548Z,0
2018-02-24T03:33:53.574Z,0
2018-02-24T03:34:53.637Z,0
2018-02-24T03:35:53.591Z,0
2018-02-24T03:36:53.577Z,0
2018-02-24T03:37:53.584Z,0
2018-02-24T03:38:53.627Z,0
2018-02-24T03:39:53.655Z,0
2018-02-24T03:40:53.657Z,0
2018-02-24T03:41:53.582Z,0
2018-02-24T03:42:53.581Z,0
2018-02-24T03:43:53.656Z,0
2018-02-24T03:44:53.582Z,0
2018-02-24T03:45:53.655Z,0
2018-02-24T03:46:53.624Z,0
2018-02-24T03:47:53.660Z,0
2018-02-24T03:48:53.589Z,0
2018-02-24T03:49:53.715Z,0
2018-02-24T03:50:53.625Z,0
2018-02-24T03:51:53.669Z,0
2018-02-24T03:52:53.630Z,0
2018-02-24T03:53:53.682Z,0
2018-02-24T03:54:53.658Z,0
2018-02-24T03:55:53.720Z,0
2018-02-24T03:56:53.578Z,0
2018-02-24T03:57:53.695Z,0
2018-02-24T03:58:53.577Z,0
2018-02-24T03:59:53.641Z,0
2018-02-24T04:00:53.689Z,0
2018-02-24T04:01:53.661Z,0
2018-02-24T04:02:53.683Z,0
2018-02-24T04:03:53.641Z,0
2018-02-24T04:04:53.644Z,0
2018-02-24T04:05:53.696Z,0
2018-02-24T04:06:53.641Z,0
2018-02-24T04:07:53.746Z,0
2018-02-24T04:08:53.585Z,0
2018-02-24T04:09:53.675Z,0
2018-02-24T04:10:53.675Z,0
2018-02-24T04:11:53.603Z,0
2018-02-24T04:12:53.601Z,0
2018-02-24T04:13:53.672Z,0
2018-02-24T04:15:53.676Z,0
2018-02-24T04:16:53.677Z,0
2018-02-24T04:17:53.602Z,0
2018-02-24T04:18:53.602Z,0
2018-02-24T04:19:53.575Z,0
2018-02-24T04:20:53.642Z,0
2018-02-24T04:21:53.698Z,0
2018-02-24T04:22:53.733Z,0
2018-02-24T04:23:53.700Z,0
2018-02-24T04:24:53.616Z,0
2018-02-24T04:25:53.704Z,0
2018-02-24T04:26:53.640Z,0
2018-02-24T04:27:53.602Z,0
2018-02-24T04:28:53.676Z,0
2018-02-24T04:29:53.685Z,0
2018-02-24T04:30:53.684Z,0
2018-02-24T04:31:53.675Z,0
2018-02-24T04:32:53.649Z,0
2018-02-24T04:33:53.602Z,0
2018-02-24T04:34:53.711Z,0
2018-02-24T04:35:53.663Z,0
2018-02-24T04:36:53.603Z,0
2018-02-24T04:37:53.651Z,0
2018-02-24T04:38:53.707Z,0
2018-02-24T04:39:53.705Z,0
2018-02-24T04:40:53.712Z,0
2018-02-24T04:41:53.591Z,0
2018-02-24T04:42:53.589Z,0
2018-02-24T04:43:53.652Z,0
2018-02-24T04:44:53.726Z,0
2018-02-24T04:45:53.650Z,0
2018-02-24T04:46:53.687Z,0
2018-02-24T04:47:53.731Z,0
2018-02-24T04:48:53.616Z,0
2018-02-24T04:49:53.612Z,0
2018-02-24T04:50:53.686Z,0
2018-02-24T04:51:53.686Z,0
2018-02-24T04:52:53.686Z,0
2018-02-24T04:53:53.618Z,0
2018-02-24T04:54:53.686Z,0
2018-02-24T04:55:53.614Z,0
2018-02-24T04:56:53.690Z,0
2018-02-24T04:57:53.623Z,0
2018-02-24T04:58:53.694Z,0
2018-02-24T04:59:53.597Z,0
2018-02-24T05:00:53.638Z,0
2018-02-24T05:01:53.692Z,0
2018-02-24T05:02:53.569Z,0
2018-02-24T05:03:53.596Z,0
2018-02-24T05:04:53.687Z,0
2018-02-24T05:05:53.641Z,0
2018-02-24T05:06:53.693Z,0
2018-02-24T05:07:53.576Z,0
2018-02-24T05:08:53.638Z,0
2018-02-24T05:09:53.642Z,0
2018-02-24T05:10:53.575Z,0
2018-02-24T05:11:53.571Z,0
2018-02-24T05:12:53.692Z,0
2018-02-24T05:13:53.685Z,0
2018-02-24T05:14:53.604Z,0
2018-02-24T05:15:53.694Z,0
2018-02-24T05:16:53.698Z,0
2018-02-24T05:17:53.675Z,0
2018-02-24T05:18:53.614Z,0
2018-02-24T05:19:53.649Z,0
2018-02-24T05:20:53.719Z,0
2018-02-24T05:21:53.613Z,0
2018-02-24T05:22:53.674Z,0
2018-02-24T05:23:53.690Z,0
2018-02-24T05:24:53.676Z,0
2018-02-24T05:25:53.723Z,0
2018-02-24T05:26:53.635Z,0
2018-02-24T05:27:53.714Z,0
2018-02-24T05:28:53.689Z,0
2018-02-24T05:29:53.756Z,0
2018-02-24T05:30:53.632Z,0
2018-02-24T05:31:53.721Z,0
2018-02-24T05:32:53.676Z,0
2018-02-24T05:33:53.654Z,0
2018-02-24T05:34:53.774Z,0
2018-02-24T05:35:53.658Z,0
2018-02-24T05:36:53.715Z,0
2018-02-24T05:37:53.644Z,0
2018-02-24T05:38:53.658Z,0
2018-02-24T05:39:53.711Z,0
2018-02-24T05:40:53.640Z,0
2018-02-24T05:41:53.715Z,0
2018-02-24T05:42:53.716Z,0
2018-02-24T05:43:53.718Z,0
2018-02-24T05:44:53.719Z,0
2018-02-24T05:45:53.651Z,0
2018-02-24T05:46:53.719Z,0
2018-02-24T05:47:53.718Z,0
2018-02-24T05:48:53.718Z,0
2018-02-24T05:49:53.664Z,0
2018-02-24T05:50:53.683Z,0
2018-02-24T05:51:53.764Z,0
2018-02-24T05:52:53.724Z,0
2018-02-24T05:53:53.646Z,0
2018-02-24T05:54:53.759Z,0
2018-02-24T05:55:53.659Z,0
2018-02-24T05:56:53.730Z,0
2018-02-24T05:57:53.760Z,0
2018-02-24T05:58:53.636Z,0
2018-02-24T05:59:53.637Z,0
2018-02-24T06:00:53.674Z,0
2018-02-24T06:01:53.770Z,0
2018-02-24T06:02:53.771Z,0
2018-02-24T06:03:53.714Z,0
2018-02-24T06:04:53.674Z,0
2018-02-24T06:05:53.680Z,0
2018-02-24T06:06:53.744Z,0
2018-02-24T06:07:53.739Z,0
2018-02-24T06:08:53.655Z,0
2018-02-24T06:09:53.678Z,0
2018-02-24T06:10:53.699Z,0
2018-02-24T06:11:53.631Z,0
2018-02-24T06:12:53.646Z,0
2018-02-24T06:13:53.683Z,0
2018-02-24T06:14:53.700Z,0
2018-02-24T06:15:53.678Z,0
2018-02-24T06:16:53.721Z,0
2018-02-24T06:17:53.677Z,0
2018-02-24T06:18:53.678Z,0
2018-02-24T06:19:53.785Z,0
2018-02-24T06:20:53.775Z,0
2018-02-24T06:21:53.802Z,0
2018-02-24T06:22:53.754Z,0
2018-02-24T06:23:53.726Z,0
2018-02-24T06:24:53.713Z,0
2018-02-24T06:25:53.684Z,0
2018-02-24T06:26:53.653Z,0
2018-02-24T06:27:53.805Z,0
2018-02-24T06:28:53.709Z,0
2018-02-24T06:29:53.752Z,0
2018-02-24T06:30:53.693Z,0
2018-02-24T06:31:53.751Z,0
2018-02-24T06:32:53.688Z,0
2018-02-24T06:33:53.691Z,0
2018-02-24T06:34:53.780Z,0
2018-02-24T06:35:53.751Z,0
2018-02-24T06:36:53.735Z,0
2018-02-24T06:37:53.797Z,0
2018-02-24T06:38:53.778Z,0
2018-02-24T06:39:53.733Z,0
2018-02-24T06:40:53.727Z,0
2018-02-24T06:41:53.791Z,0
2018-02-24T06:42:53.765Z,0
2018-02-24T06:43:53.756Z,0
2018-02-24T06:44:53.796Z,0
2018-02-24T06:45:53.754Z,0
2018-02-24T06:46:53.758Z,0
2018-02-24T06:47:53.790Z,0
2018-02-24T06:48:53.740Z,0
2018-02-24T06:49:53.764Z,12
2018-02-24T06:50:53.681Z,13
2018-02-24T06:51:53.706Z,12
2018-02-24T06:52:53.723Z,14
2018-02-24T06:53:53.724Z,15
2018-02-24T06:54:53.731Z,18
2018-02-24T06:55:53.681Z,19
2018-02-24T06:56:53.793Z,20
2018-02-24T06:57:53.792Z,21
2018-02-24T06:58:53.742Z,21
2018-02-24T06:59:53.792Z,24
2018-02-24T07:00:53.707Z,24
2018-02-24T07:01:53.795Z,24
2018-02-24T07:02:53.739Z,25
2018-02-24T07:03:53.712Z,26
2018-02-24T07:04:53.708Z,26
2018-02-24T07:05:53.671Z,28
2018-02-24T07:06:53.737Z,28
2018-02-24T07:07:53.815Z,30
2018-02-24T07:08:53.693Z,31
2018-02-24T07:09:53.771Z,33
2018-02-24T07:10:53.648Z,34
2018-02-24T07:11:53.661Z,32
2018-02-24T07:12:53.778Z,37
2018-02-24T07:13:53.695Z,38
2018-02-24T07:14:53.696Z,53
2018-02-24T07:15:53.737Z,53
2018-02-24T07:16:53.680Z,56
2018-02-24T07:17:53.685Z,60
2018-02-24T07:18:53.700Z,61
2018-02-24T07:19:53.786Z,71
2018-02-24T07:20:53.780Z,75
2018-02-24T07:21:53.717Z,76
2018-02-24T07:22:53.772Z,67
2018-02-24T07:23:53.720Z,73
2018-02-24T07:24:53.719Z,89
2018-02-24T07:25:53.719Z,97
2018-02-24T07:26:53.786Z,98
2018-02-24T07:27:53.718Z,101
2018-02-24T07:28:53.722Z,104
2018-02-24T07:29:53.771Z,104
2018-02-24T07:30:53.772Z,108
2018-02-24T07:31:53.683Z,121
2018-02-24T07:32:53.712Z,119
2018-02-24T07:33:53.656Z,117
2018-02-24T07:34:53.651Z,127
2018-02-24T07:35:53.719Z,130
2018-02-24T07:36:53.770Z,133
2018-02-24T07:37:53.770Z,135
2018-02-24T07:38:53.770Z,136
2018-02-24T07:39:53.789Z,141
2018-02-24T07:40:53.764Z,142
2018-02-24T07:41:53.795Z,139
2018-02-24T07:42:53.712Z,141
2018-02-24T07:43:53.774Z,136
2018-02-24T07:44:53.801Z,139
2018-02-24T07:45:53.798Z,163
2018-02-24T07:46:53.784Z,143
2018-02-24T07:47:53.825Z,150
2018-02-24T07:48:53.694Z,168
2018-02-24T07:49:53.700Z,177
2018-02-24T07:50:53.758Z,184
2018-02-24T07:51:53.791Z,190
2018-02-24T07:52:53.785Z,184
2018-02-24T07:53:53.769Z,187
2018-02-24T07:54:53.830Z,200
2018-02-24T07:55:53.819Z,202
2018-02-24T07:56:53.783Z,207
2018-02-24T07:57:53.772Z,209
2018-02-24T07:58:53.806Z,206
2018-02-24T07:59:53.806Z,209
2018-02-24T08:00:53.739Z,218
2018-02-24T08:01:53.814Z,222
2018-02-24T08:02:53.736Z,225
2018-02-24T08:03:53.766Z,227
2018-02-24T08:04:53.815Z,222
2018-02-24T08:05:53.814Z,224
2018-02-24T08:06:53.766Z,236
2018-02-24T08:07:53.746Z,241
2018-02-24T08:08:53.811Z,247
2018-02-24T08:09:53.843Z,252
2018-02-24T08:10:53.730Z,168
2018-02-24T08:11:53.767Z,133
2018-02-24T08:12:53.784Z,260
2018-02-24T08:13:53.837Z,268
2018-02-24T08:14:53.714Z,272
2018-02-24T08:15:53.837Z,275
2018-02-24T08:16:53.812Z,278
2018-02-24T08:17:53.735Z,278
2018-02-24T08:18:53.789Z,282
2018-02-24T08:19:53.721Z,290
2018-02-24T08:20:53.738Z,292
2018-02-24T08:21:53.810Z,294
2018-02-24T08:22:53.776Z,294
2018-02-24T08:23:53.773Z,264
2018-02-24T08:24:53.725Z,260
2018-02-24T08:25:53.726Z,213
2018-02-24T08:26:53.726Z,184
2018-02-24T08:27:53.748Z,130
2018-02-24T08:28:53.777Z,132
2018-02-24T08:29:53.834Z,118
2018-02-24T08:31:53.854Z,111
2018-02-24T08:32:53.757Z,118
2018-02-24T08:33:53.863Z,142
2018-02-24T08:34:53.852Z,138
2018-02-24T08:35:53.864Z,130
2018-02-24T08:36:53.809Z,138
2018-02-24T08:37:53.791Z,143
2018-02-24T08:38:53.793Z,140
2018-02-24T08:39:53.880Z,144
2018-02-24T08:40:53.733Z,152
2018-02-24T08:41:53.869Z,173
2018-02-24T08:42:53.806Z,192
2018-02-24T08:43:53.750Z,212
2018-02-24T08:44:53.732Z,214
2018-02-24T08:45:53.798Z,213
2018-02-24T08:46:53.867Z,218
2018-02-24T08:47:53.754Z,215
2018-02-24T08:48:53.757Z,214
2018-02-24T08:49:53.794Z,215
2018-02-24T08:50:53.869Z,207
2018-02-24T08:51:53.869Z,213
2018-02-24T08:52:53.810Z,218
2018-02-24T08:53:53.876Z,213
2018-02-24T08:54:53.869Z,213
2018-02-24T08:55:53.755Z,209
2018-02-24T08:56:53.761Z,214
2018-02-24T08:57:53.800Z,208
2018-02-24T08:58:53.735Z,206
2018-02-24T08:59:53.912Z,200
2018-02-24T09:00:53.772Z,201
2018-02-24T09:01:53.848Z,192
2018-02-24T09:02:53.775Z,193
2018-02-24T09:03:53.842Z,187
2018-02-24T09:04:53.775Z,189
2018-02-24T09:05:53.849Z,186
2018-02-24T09:06:53.789Z,184
2018-02-24T09:07:53.846Z,184
2018-02-24T09:08:53.781Z,186
2018-02-24T09:09:53.777Z,180
2018-02-24T09:10:53.717Z,174
2018-02-24T09:11:53.761Z,174
2018-02-24T09:12:53.733Z,173
2018-02-24T09:13:53.842Z,168
2018-02-24T09:14:53.844Z,166
2018-02-24T09:15:53.848Z,166
2018-02-24T09:16:53.789Z,162
2018-02-24T09:17:53.810Z,154
2018-02-24T09:18:53.770Z,152
2018-02-24T09:19:53.810Z,142
2018-02-24T09:20:53.790Z,139
2018-02-24T09:21:53.772Z,137
2018-02-24T09:22:53.759Z,132
2018-02-24T09:23:53.774Z,127
2018-02-24T09:24:53.855Z,127
2018-02-24T09:25:53.834Z,128
2018-02-24T09:26:53.853Z,129
2018-02-24T09:27:53.856Z,131
2018-02-24T09:28:53.894Z,130
2018-02-24T09:29:53.797Z,133
2018-02-24T09:30:53.847Z,136
2018-02-24T09:31:53.734Z,128
2018-02-24T09:32:53.754Z,134
2018-02-24T09:33:53.818Z,147
2018-02-24T09:34:53.794Z,153
2018-02-24T09:35:53.731Z,150
2018-02-24T09:36:53.817Z,150
2018-02-24T09:37:53.843Z,141
2018-02-24T09:38:53.852Z,143
2018-02-24T09:39:53.811Z,154
2018-02-24T09:40:53.783Z,161
2018-02-24T09:41:53.824Z,158
2018-02-24T09:42:53.903Z,154
2018-02-24T09:43:53.896Z,145
2018-02-24T09:44:53.888Z,147
2018-02-24T09:45:53.770Z,145
2018-02-24T09:46:53.850Z,141
2018-02-24T09:47:53.911Z,140
2018-02-24T09:48:53.851Z,142
2018-02-24T09:49:53.908Z,130
2018-02-24T09:50:53.794Z,129
2018-02-24T09:51:53.788Z,137
2018-02-24T09:52:53.891Z,134
2018-02-24T09:53:53.842Z,134
2018-02-24T09:54:53.777Z,140
2018-02-24T09:55:53.913Z,135
2018-02-24T09:56:53.831Z,142
2018-02-24T09:57:53.874Z,140
2018-02-24T09:58:53.875Z,140
2018-02-24T09:59:53.912Z,144
2018-02-24T10:00:53.819Z,148
2018-02-24T10:01:53.891Z,129
2018-02-24T10:02:53.879Z,157
2018-02-24T10:03:53.912Z,155
2018-02-24T10:04:53.839Z,156
2018-02-24T10:05:53.916Z,156
2018-02-24T10:06:53.884Z,153
2018-02-24T10:07:53.884Z,148
2018-02-24T10:08:53.904Z,142
2018-02-24T10:09:53.800Z,137
2018-02-24T10:10:53.906Z,133
2018-02-24T10:11:53.857Z,138
2018-02-24T10:12:53.887Z,140
2018-02-24T10:13:53.882Z,142
2018-02-24T10:14:53.913Z,141
2018-02-24T10:15:53.920Z,136
2018-02-24T10:16:53.808Z,135
2018-02-24T10:17:53.923Z,139
2018-02-24T10:18:53.931Z,139
2018-02-24T10:19:53.846Z,136
2018-02-24T10:20:53.924Z,127
2018-02-24T10:21:53.871Z,126
2018-02-24T10:22:53.891Z,127
2018-02-24T10:23:53.862Z,126
2018-02-24T10:24:53.991Z,128
2018-02-24T10:25:53.889Z,129
2018-02-24T10:26:53.889Z,127
2018-02-24T10:27:53.920Z,128
2018-02-24T10:28:53.897Z,128
2018-02-24T10:29:53.894Z,122
2018-02-24T10:30:53.850Z,117
2018-02-24T10:31:53.887Z,114
2018-02-24T10:32:53.906Z,114
2018-02-24T10:33:53.815Z,116
2018-02-24T10:34:53.846Z,115
2018-02-24T10:35:53.852Z,112
2018-02-24T10:36:53.887Z,110
2018-02-24T10:37:53.822Z,110
2018-02-24T10:38:53.858Z,111
2018-02-24T10:39:53.886Z,114
2018-02-24T10:40:53.829Z,117
2018-02-24T10:41:53.901Z,121
2018-02-24T10:42:53.829Z,126
2018-02-24T10:43:53.909Z,129
2018-02-24T10:44:53.833Z,124
2018-02-24T10:45:53.834Z,119
2018-02-24T10:46:53.904Z,114
2018-02-24T10:47:53.833Z,115
2018-02-24T10:48:53.908Z,118
2018-02-24T10:49:53.837Z,114
2018-02-24T10:50:53.939Z,111
2018-02-24T10:51:53.810Z,112
2018-02-24T10:52:53.944Z,112
2018-02-24T10:53:53.872Z,110
2018-02-24T10:54:53.938Z,106
2018-02-24T10:55:53.827Z,108
2018-02-24T10:56:53.910Z,106
2018-02-24T10:57:53.917Z,103
2018-02-24T10:58:53.871Z,98
2018-02-24T10:59:53.895Z,101
2018-02-24T11:00:53.918Z,109
2018-02-24T11:01:53.847Z,112
2018-02-24T11:02:53.883Z,115
2018-02-24T11:03:53.848Z,109
2018-02-24T11:04:53.924Z,93
2018-02-24T11:05:53.885Z,93
2018-02-24T11:06:53.808Z,101
2018-02-24T11:07:53.861Z,102
2018-02-24T11:08:53.915Z,96
2018-02-24T11:09:53.926Z,99
2018-02-24T11:10:53.940Z,104
2018-02-24T11:11:53.895Z,105
2018-02-24T11:12:53.899Z,108
2018-02-24T11:13:53.879Z,108
2018-02-24T11:14:53.824Z,100
2018-02-24T11:15:53.899Z,100
2018-02-24T11:16:53.824Z,104
2018-02-24T11:17:53.957Z,109
2018-02-24T11:18:53.927Z,110
2018-02-24T11:19:53.895Z,107
2018-02-24T11:20:53.958Z,105
2018-02-24T11:21:53.958Z,101
2018-02-24T11:22:53.963Z,97
2018-02-24T11:23:53.900Z,97
2018-02-24T11:24:53.950Z,97
2018-02-24T11:25:53.895Z,103
2018-02-24T11:26:53.884Z,115
2018-02-24T11:27:53.949Z,113
2018-02-24T11:28:53.902Z,111
2018-02-24T11:29:53.963Z,127
2018-02-24T11:30:53.901Z,146
2018-02-24T11:31:53.929Z,180
2018-02-24T11:32:53.916Z,207
2018-02-24T11:33:53.972Z,224
2018-02-24T11:34:53.890Z,229
2018-02-24T11:35:53.894Z,236
2018-02-24T11:36:53.902Z,257
2018-02-24T11:37:53.931Z,276
2018-02-24T11:38:53.910Z,280
2018-02-24T11:39:53.916Z,266
2018-02-24T11:40:53.843Z,254
2018-02-24T11:41:53.921Z,244
2018-02-24T11:42:53.889Z,243
2018-02-24T11:43:53.982Z,235
2018-02-24T11:44:53.845Z,242
2018-02-24T11:45:53.924Z,252
2018-02-24T11:46:53.926Z,261
2018-02-24T11:47:53.892Z,279
2018-02-24T11:48:53.936Z,308
2018-02-24T11:49:53.924Z,314
2018-02-24T11:50:53.847Z,276
2018-02-24T11:51:53.807Z,261
2018-02-24T11:52:53.971Z,265
2018-02-24T11:53:53.810Z,271
2018-02-24T11:54:53.924Z,243
2018-02-24T11:55:53.875Z,223
2018-02-24T11:56:53.851Z,236
2018-02-24T11:57:53.851Z,257
2018-02-24T11:58:53.896Z,262
2018-02-24T11:59:53.854Z,263
2018-02-24T12:00:53.901Z,286
2018-02-24T12:01:53.974Z,290
2018-02-24T12:02:54.007Z,271
2018-02-24T12:03:53.929Z,250
2018-02-24T12:04:53.980Z,211
2018-02-24T12:05:53.892Z,179
2018-02-24T12:06:53.950Z,164
2018-02-24T12:07:53.926Z,167
2018-02-24T12:08:54.002Z,166
2018-02-24T12:09:53.989Z,159
2018-02-24T12:10:53.852Z,163
2018-02-24T12:11:53.982Z,181
2018-02-24T12:12:53.913Z,210
2018-02-24T12:13:53.850Z,240
2018-02-24T12:14:53.980Z,278
2018-02-24T12:15:53.923Z,349
2018-02-24T12:16:53.956Z,346
2018-02-24T12:17:53.954Z,444
2018-02-24T12:18:53.961Z,919
2018-02-24T12:19:53.975Z,911
2018-02-24T12:20:53.922Z,951
2018-02-24T12:21:53.942Z,796
2018-02-24T12:22:53.898Z,903
2018-02-24T12:23:53.845Z,878
2018-02-24T12:24:53.896Z,868
2018-02-24T12:25:53.931Z,865
2018-02-24T12:26:53.868Z,833
2018-02-24T12:27:53.957Z,823
2018-02-24T12:28:53.919Z,789
2018-02-24T12:29:53.870Z,780
2018-02-24T12:30:53.992Z,367
2018-02-24T12:31:53.965Z,690
2018-02-24T12:32:53.996Z,720
2018-02-24T12:33:53.965Z,517
2018-02-24T12:34:53.997Z,269
2018-02-24T12:35:53.940Z,181
2018-02-24T12:36:53.933Z,484
2018-02-24T12:37:53.957Z,293
2018-02-24T12:38:53.924Z,188
2018-02-24T12:39:53.940Z,173
2018-02-24T12:40:53.867Z,391
2018-02-24T12:41:53.971Z,706
2018-02-24T12:42:53.873Z,700
2018-02-24T12:43:53.969Z,696
2018-02-24T12:44:53.880Z,687
2018-02-24T12:45:53.913Z,680
2018-02-24T12:46:53.911Z,689
2018-02-24T12:47:53.914Z,686
2018-02-24T12:48:53.876Z,682
2018-02-24T12:49:53.882Z,674
2018-02-24T12:50:53.845Z,684
2018-02-24T12:51:53.883Z,686
2018-02-24T12:52:53.884Z,670
2018-02-24T12:53:53.973Z,686
2018-02-24T12:54:53.886Z,716
2018-02-24T12:55:53.980Z,717
2018-02-24T12:56:53.936Z,711
2018-02-24T12:57:53.890Z,701
2018-02-24T12:58:53.887Z,708
2018-02-24T12:59:53.971Z,722
2018-02-24T13:00:53.901Z,723
2018-02-24T13:01:53.948Z,758
2018-02-24T13:02:53.952Z,767
2018-02-24T13:03:54.012Z,784
2018-02-24T13:04:53.882Z,768
2018-02-24T13:05:53.983Z,771
2018-02-24T13:06:53.985Z,763
2018-02-24T13:07:53.969Z,743
2018-02-24T13:08:53.972Z,735
2018-02-24T13:09:53.954Z,746
2018-02-24T13:10:53.967Z,728
2018-02-24T13:11:53.969Z,710
2018-02-24T13:12:53.897Z,703
2018-02-24T13:13:54.015Z,696
2018-02-24T13:14:53.972Z,690
2018-02-24T13:15:53.962Z,680
2018-02-24T13:16:54.026Z,670
2018-02-24T13:17:53.993Z,660
2018-02-24T13:18:53.915Z,647
2018-02-24T13:19:53.951Z,591
2018-02-24T13:20:53.999Z,489
2018-02-24T13:21:53.930Z,652
2018-02-24T13:22:54.000Z,176
2018-02-24T13:23:53.931Z,631
2018-02-24T13:24:53.931Z,632
2018-02-24T13:25:53.997Z,600
2018-02-24T13:26:53.959Z,139
2018-02-24T13:27:53.939Z,124
2018-02-24T13:28:54.006Z,507
2018-02-24T13:29:54.003Z,100
2018-02-24T13:30:54.002Z,525
2018-02-24T13:31:54.000Z,540
2018-02-24T13:32:54.001Z,476
2018-02-24T13:33:54.007Z,430
2018-02-24T13:34:53.936Z,96
2018-02-24T13:35:54.007Z,580
2018-02-24T13:36:53.937Z,579
2018-02-24T13:37:54.007Z,582
2018-02-24T13:38:53.940Z,566
2018-02-24T13:39:54.104Z,565
2018-02-24T13:40:54.026Z,556
2018-02-24T13:41:54.030Z,553
2018-02-24T13:42:53.993Z,251
2018-02-24T13:43:54.041Z,539
2018-02-24T13:44:54.037Z,535
2018-02-24T13:45:54.011Z,514
2018-02-24T13:46:54.039Z,537
2018-02-24T13:47:54.032Z,539
2018-02-24T13:48:53.989Z,534
2018-02-24T13:49:53.987Z,534
2018-02-24T13:50:53.976Z,523
2018-02-24T13:51:53.937Z,534
2018-02-24T13:52:53.922Z,500
2018-02-24T13:53:53.894Z,498
2018-02-24T13:54:53.921Z,511
2018-02-24T13:55:53.953Z,555
2018-02-24T13:56:53.927Z,544
2018-02-24T13:57:54.007Z,541
2018-02-24T13:58:54.012Z,540
2018-02-24T13:59:53.958Z,515
2018-02-24T14:00:54.016Z,505
2018-02-24T14:01:54.024Z,405
2018-02-24T14:02:54.043Z,477
2018-02-24T14:03:53.978Z,449
2018-02-24T14:04:54.043Z,377
2018-02-24T14:05:53.922Z,353
2018-02-24T14:06:54.061Z,398
2018-02-24T14:07:53.931Z,440
2018-02-24T14:08:53.987Z,407
2018-02-24T14:09:53.924Z,350
2018-02-24T14:10:54.036Z,354
2018-02-24T14:11:53.984Z,324
2018-02-24T14:12:53.959Z,282
2018-02-24T14:13:54.031Z,312
2018-02-24T14:14:53.960Z,374
2018-02-24T14:15:54.035Z,322
2018-02-24T14:16:53.964Z,363
2018-02-24T14:17:53.958Z,371
2018-02-24T14:18:53.961Z,399